Time;durP1;ratioP1;P1;durP2;ratioP2;P2;SDS_P1;SDS_P2;PMS_P1;PMS_P2;Temp;Humidity;BMP_temperature;BMP_pressure;BME280_temperature;BME280_humidity;BME280_pressure;Samples;Min_cycle;Max_cycle;Signal;HPM_P1;HPM_P2
2023/10/15 00:01:29;;;;;;;10.37;2.10;;;;;;;;;;5019381;28;20184;-83
2023/10/15 00:04:35;;;;;;;7.40;2.37;;;;;;;;;;5041285;28;20216;-84
2023/10/15 00:07:39;;;;;;;8.00;2.10;;;;;;;;;;5042035;28;20189;-84
2023/10/15 00:10:43;;;;;;;8.10;2.77;;;;;;;;;;5029665;28;20570;-84
2023/10/15 00:13:48;;;;;;;4.40;2.23;;;;;;;;;;5030104;28;20217;-84
2023/10/15 00:16:52;;;;;;;5.17;2.33;;;;;;;;;;5017769;28;20189;-84
2023/10/15 00:19:56;;;;;;;6.30;2.17;;;;;;;;;;5027676;28;20185;-84
2023/10/15 00:23:04;;;;;;;5.80;2.27;;;;;;;;;;5026885;28;20185;-83
2023/10/15 00:26:12;;;;;;;5.37;2.20;;;;;;;;;;5038273;28;20181;-83
2023/10/15 00:29:22;;;;;;;7.13;2.50;;;;;;;;;;5026775;28;20181;-84
2023/10/15 00:32:29;;;;;;;4.57;2.10;;;;;;;;;;5025859;28;20184;-84
2023/10/15 00:35:34;;;;;;;6.00;3.13;;;;;;;;;;5028903;28;20216;-84
2023/10/15 00:38:38;;;;;;;6.67;2.23;;;;;;;;;;5004316;28;20189;-84
2023/10/15 00:41:45;;;;;;;4.30;2.30;;;;;;;;;;5027029;28;20181;-84
2023/10/15 00:44:50;;;;;;;11.40;2.87;;;;;;;;;;5026297;28;20216;-83
2023/10/15 00:51:11;;;;;;;10.37;3.03;;;;;;;;;;5038590;28;20549;-84
2023/10/15 00:54:16;;;;;;;6.77;2.73;;;;;;;;;;5065556;28;20231;-83
2023/10/15 00:57:26;;;;;;;4.10;2.13;;;;;;;;;;5054693;28;20184;-84
2023/10/15 01:00:51;;;;;;;6.40;2.23;;;;;;;;;;5078489;28;20180;-84
2023/10/15 01:03:57;;;;;;;6.37;2.60;;;;;;;;;;5066484;28;20216;-84
2023/10/15 01:07:13;;;;;;;6.03;2.70;;;;;;;;;;5044146;28;20187;-84
2023/10/15 01:10:39;;;;;;;5.87;2.13;;;;;;;;;;5054744;28;20176;-84
2023/10/15 01:13:44;;;;;;;5.53;2.50;;;;;;;;;;5054924;28;20219;-84
2023/10/15 01:16:48;;;;;;;6.77;2.60;;;;;;;;;;5066005;28;20172;-84
2023/10/15 01:19:52;;;;;;;5.30;2.47;;;;;;;;;;5065826;28;20187;-84
2023/10/15 01:22:57;;;;;;;4.10;2.53;;;;;;;;;;5054223;28;20188;-84
2023/10/15 01:26:00;;;;;;;8.30;2.20;;;;;;;;;;5053542;28;20660;-84
2023/10/15 01:29:06;;;;;;;5.47;2.33;;;;;;;;;;5065587;28;20203;-84
2023/10/15 01:32:22;;;;;;;6.67;2.60;;;;;;;;;;5064983;28;20188;-84
2023/10/15 01:35:26;;;;;;;5.63;2.57;;;;;;;;;;5064728;28;20207;-84
2023/10/15 01:38:30;;;;;;;5.13;2.30;;;;;;;;;;5054060;28;20187;-84
2023/10/15 01:41:34;;;;;;;4.10;2.40;;;;;;;;;;5044633;28;20625;-84
2023/10/15 01:44:47;;;;;;;6.63;2.30;;;;;;;;;;5032410;28;20220;-84
2023/10/15 01:51:06;;;;;;;6.50;2.23;;;;;;;;;;5045776;28;20184;-83
2023/10/15 01:54:10;;;;;;;9.50;1.97;;;;;;;;;;5033734;28;20554;-84
2023/10/15 01:57:15;;;;;;;7.93;2.50;;;;;;;;;;5033938;28;20184;-84
2023/10/15 02:00:43;;;;;;;3.40;1.90;;;;;;;;;;5033490;28;20180;-83
2023/10/15 02:03:48;;;;;;;4.90;2.00;;;;;;;;;;5024888;28;20216;-83
2023/10/15 02:06:53;;;;;;;6.70;2.30;;;;;;;;;;5032895;28;20518;-83
2023/10/15 02:09:57;;;;;;;4.03;2.13;;;;;;;;;;5020916;28;20184;-83
2023/10/15 02:13:04;;;;;;;7.57;2.30;;;;;;;;;;5033036;28;20180;-84
2023/10/15 02:16:15;;;;;;;6.07;2.47;;;;;;;;;;5044105;28;20212;-84
2023/10/15 02:19:34;;;;;;;8.40;2.37;;;;;;;;;;5044221;28;20184;-84
2023/10/15 02:22:40;;;;;;;4.23;2.10;;;;;;;;;;5032578;28;20176;-84
2023/10/15 02:25:46;;;;;;;6.93;2.93;;;;;;;;;;5044164;28;20527;-84
2023/10/15 02:28:53;;;;;;;4.93;2.20;;;;;;;;;;5043705;28;20184;-83
2023/10/15 02:32:21;;;;;;;4.20;2.10;;;;;;;;;;5043964;28;20180;-84
2023/10/15 02:35:31;;;;;;;5.90;2.33;;;;;;;;;;5043185;28;20673;-84
2023/10/15 02:38:37;;;;;;;4.40;2.13;;;;;;;;;;5033922;28;20176;-84
2023/10/15 02:41:41;;;;;;;5.90;2.50;;;;;;;;;;5052619;28;20175;-83
2023/10/15 02:44:50;;;;;;;8.13;2.50;;;;;;;;;;5063718;28;20211;-84
2023/10/15 02:47:55;;;;;;;4.37;2.00;;;;;;;;;;5063799;28;20188;-83
2023/10/15 02:51:08;;;;;;;5.40;2.20;;;;;;;;;;5063871;28;20188;-83
2023/10/15 02:54:18;;;;;;;5.07;2.13;;;;;;;;;;5051039;28;20219;-84
2023/10/15 02:57:23;;;;;;;6.03;2.10;;;;;;;;;;5040704;28;20184;-83
2023/10/15 03:00:33;;;;;;;5.93;2.50;;;;;;;;;;5063404;28;20183;-84
2023/10/15 03:03:37;;;;;;;6.23;2.27;;;;;;;;;;5052449;28;20215;-84
2023/10/15 03:06:41;;;;;;;9.70;2.50;;;;;;;;;;5052435;28;20180;-84
2023/10/15 03:09:53;;;;;;;4.30;2.23;;;;;;;;;;5052537;28;20176;-84
2023/10/15 03:13:01;;;;;;;9.77;2.80;;;;;;;;;;5052792;28;20184;-84
2023/10/15 03:16:07;;;;;;;8.43;2.60;;;;;;;;;;5064154;28;20215;-84
2023/10/15 03:19:19;;;;;;;7.73;2.30;;;;;;;;;;5063989;28;20179;-84
2023/10/15 03:22:30;;;;;;;4.23;2.40;;;;;;;;;;5063869;28;20183;-84
2023/10/15 03:25:34;;;;;;;7.20;2.10;;;;;;;;;;5052853;28;20176;-84
2023/10/15 03:28:44;;;;;;;7.10;2.60;;;;;;;;;;5063917;28;20184;-84
2023/10/15 03:31:53;;;;;;;6.33;1.93;;;;;;;;;;5052154;28;20192;-84
2023/10/15 03:35:27;;;;;;;8.27;2.10;;;;;;;;;;5052302;28;20576;-84
2023/10/15 03:38:34;;;;;;;6.37;2.37;;;;;;;;;;5040743;28;20188;-84
2023/10/15 03:41:40;;;;;;;3.27;1.90;;;;;;;;;;5076023;28;20259;-83
2023/10/15 03:44:45;;;;;;;5.80;2.30;;;;;;;;;;5075497;28;20570;-83
2023/10/15 03:47:54;;;;;;;6.77;2.23;;;;;;;;;;5075411;28;20187;-84
2023/10/15 03:50:58;;;;;;;3.30;2.07;;;;;;;;;;5063295;28;20521;-84
2023/10/15 03:54:06;;;;;;;6.70;2.10;;;;;;;;;;5063119;28;20219;-84
2023/10/15 03:57:11;;;;;;;6.27;2.07;;;;;;;;;;5063158;28;20243;-84
2023/10/15 04:00:26;;;;;;;8.57;2.60;;;;;;;;;;5063154;28;20188;-84
2023/10/15 04:03:35;;;;;;;4.53;1.90;;;;;;;;;;5040264;28;20220;-84
2023/10/15 04:06:39;;;;;;;5.00;2.20;;;;;;;;;;5036930;28;20188;-83
2023/10/15 04:09:43;;;;;;;6.83;2.13;;;;;;;;;;5047565;28;20184;-84
2023/10/15 04:12:47;;;;;;;7.50;2.33;;;;;;;;;;5046423;28;20180;-83
2023/10/15 04:15:56;;;;;;;6.20;2.30;;;;;;;;;;5034435;28;20216;-84
2023/10/15 04:19:12;;;;;;;5.87;2.20;;;;;;;;;;5058175;28;20630;-84
2023/10/15 04:22:19;;;;;;;8.00;2.57;;;;;;;;;;5024436;28;20633;-85
2023/10/15 04:25:24;;;;;;;7.10;2.37;;;;;;;;;;5023035;28;20630;-83
2023/10/15 04:28:28;;;;;;;5.70;2.00;;;;;;;;;;5023494;28;20192;-83
2023/10/15 04:31:32;;;;;;;5.73;2.17;;;;;;;;;;5042380;28;20201;-83
2023/10/15 04:34:39;;;;;;;6.87;2.67;;;;;;;;;;5040140;28;20224;-83
2023/10/15 04:37:45;;;;;;;6.87;2.27;;;;;;;;;;5016642;28;20185;-83
2023/10/15 04:44:03;;;;;;;3.60;1.67;;;;;;;;;;5033552;28;20221;-83
2023/10/15 04:47:09;;;;;;;8.43;2.50;;;;;;;;;;5034384;28;20192;-83
2023/10/15 04:50:16;;;;;;;6.20;2.20;;;;;;;;;;5025899;28;20543;-84
2023/10/15 04:56:24;;;;;;;8.00;2.10;;;;;;;;;;5033814;28;20212;-83
2023/10/15 04:59:29;;;;;;;5.47;2.17;;;;;;;;;;5057788;28;20184;-83
2023/10/15 05:02:34;;;;;;;6.73;2.37;;;;;;;;;;5033483;28;20542;-83
2023/10/15 05:05:38;;;;;;;6.40;2.30;;;;;;;;;;5057537;28;20176;-83
2023/10/15 05:08:42;;;;;;;7.73;2.27;;;;;;;;;;5022430;28;20184;-83
2023/10/15 05:11:49;;;;;;;5.47;2.07;;;;;;;;;;5056365;28;20192;-83
2023/10/15 05:14:53;;;;;;;7.97;2.13;;;;;;;;;;5044731;28;20224;-83
2023/10/15 05:17:57;;;;;;;7.43;2.03;;;;;;;;;;5044525;28;20184;-83
2023/10/15 05:21:02;;;;;;;4.27;1.60;;;;;;;;;;5022223;28;20180;-83
2023/10/15 05:24:06;;;;;;;7.90;2.20;;;;;;;;;;5044865;28;20223;-82
2023/10/15 05:27:12;;;;;;;3.37;1.80;;;;;;;;;;5022377;28;20180;-83
2023/10/15 05:30:16;;;;;;;3.53;1.80;;;;;;;;;;5055870;28;20645;-83
2023/10/15 05:33:20;;;;;;;6.37;2.03;;;;;;;;;;5032900;28;20215;-83
2023/10/15 05:36:25;;;;;;;5.10;2.00;;;;;;;;;;5022264;28;20220;-83
2023/10/15 05:39:29;;;;;;;3.40;2.10;;;;;;;;;;5032913;28;20208;-83
2023/10/15 05:42:34;;;;;;;8.70;2.10;;;;;;;;;;5044087;28;20184;-84
2023/10/15 05:45:39;;;;;;;7.17;2.17;;;;;;;;;;5044216;28;20629;-83
2023/10/15 05:48:43;;;;;;;6.13;2.33;;;;;;;;;;5044108;28;20184;-83
2023/10/15 05:51:47;;;;;;;5.73;2.30;;;;;;;;;;5032163;28;20195;-83
2023/10/15 05:54:53;;;;;;;46.10;23.30;;;;;;;;;;5012463;28;20224;-83
2023/10/15 05:57:58;;;;;;;31.37;19.90;;;;;;;;;;5024003;28;20184;-83
2023/10/15 06:01:03;;;;;;;12.20;6.53;;;;;;;;;;5013029;28;20652;-83
2023/10/15 06:04:07;;;;;;;6.60;3.67;;;;;;;;;;5024120;28;20221;-83
2023/10/15 06:07:11;;;;;;;5.70;2.27;;;;;;;;;;5012998;28;20176;-83
2023/10/15 06:10:16;;;;;;;4.93;2.17;;;;;;;;;;5012860;28;20185;-83
2023/10/15 06:13:21;;;;;;;8.77;2.40;;;;;;;;;;5012694;28;20220;-83
2023/10/15 06:16:25;;;;;;;4.57;1.90;;;;;;;;;;5024739;28;20217;-83
2023/10/15 06:19:34;;;;;;;9.20;5.80;;;;;;;;;;5024348;28;20189;-84
2023/10/15 06:22:41;;;;;;;7.07;3.93;;;;;;;;;;5012609;28;20184;-83
2023/10/15 06:25:45;;;;;;;6.23;3.70;;;;;;;;;;5012776;28;20543;-83
2023/10/15 06:28:49;;;;;;;7.50;4.17;;;;;;;;;;5012952;28;20610;-84
2023/10/15 06:31:54;;;;;;;5.83;3.37;;;;;;;;;;5032630;28;20193;-83
2023/10/15 06:34:59;;;;;;;8.33;3.00;;;;;;;;;;5021684;28;20565;-84
2023/10/15 06:38:03;;;;;;;11.03;6.83;;;;;;;;;;5032843;28;20522;-83
2023/10/15 06:41:10;;;;;;;12.33;3.97;;;;;;;;;;5044794;28;20180;-83
2023/10/15 06:44:19;;;;;;;8.17;4.43;;;;;;;;;;5057337;28;20220;-83
2023/10/15 06:47:23;;;;;;;7.40;3.27;;;;;;;;;;5041876;28;20180;-83
2023/10/15 06:50:27;;;;;;;5.87;2.70;;;;;;;;;;5033758;28;20188;-83
2023/10/15 06:53:34;;;;;;;4.83;2.40;;;;;;;;;;5058037;28;20215;-83
2023/10/15 06:56:41;;;;;;;5.37;2.50;;;;;;;;;;5044597;28;20212;-83
2023/10/15 06:59:45;;;;;;;4.63;2.13;;;;;;;;;;5022732;28;20180;-83
2023/10/15 07:02:52;;;;;;;7.87;3.03;;;;;;;;;;5022266;28;20180;-84
2023/10/15 07:07:00;;;;;;;8.23;3.67;;;;;;;;;;5029967;28;20205;-83
2023/10/15 07:11:37;;;;;;;5.90;3.03;;;;;;;;;;5031170;28;20217;-83
2023/10/15 07:16:06;;;;;;;6.00;2.00;;;;;;;;;;5035838;28;20185;-83
2023/10/15 07:19:20;;;;;;;7.50;3.17;;;;;;;;;;5013490;28;20193;-83
2023/10/15 07:26:06;;;;;;;6.60;2.97;;;;;;;;;;5022894;28;20184;-83
2023/10/15 07:30:03;;;;;;;13.07;4.83;;;;;;;;;;5011880;28;20200;-83
2023/10/15 07:43:42;;;;;;;6.50;3.87;;;;;;;;;;4991469;28;20206;-83
2023/10/15 07:47:18;;;;;;;8.50;3.30;;;;;;;;;;4986202;28;20218;-83
2023/10/15 07:50:26;;;;;;;8.87;3.97;;;;;;;;;;4964932;28;20572;-83
2023/10/15 07:53:36;;;;;;;10.10;3.70;;;;;;;;;;4972603;28;20230;-83
2023/10/15 07:56:43;;;;;;;6.90;3.30;;;;;;;;;;4957269;28;20222;-83
2023/10/15 08:01:38;;;;;;;5.60;2.50;;;;;;;;;;4991120;28;20579;-83
2023/10/15 08:09:37;;;;;;;5.50;2.50;;;;;;;;;;5007199;28;20185;-83
2023/10/15 08:12:42;;;;;;;3.93;2.00;;;;;;;;;;4983314;28;20186;-83
2023/10/15 08:21:22;;;;;;;6.40;2.17;;;;;;;;;;5004825;28;20202;-83
2023/10/15 08:24:34;;;;;;;7.80;2.17;;;;;;;;;;5017755;28;20217;-83
2023/10/15 08:28:19;;;;;;;4.30;2.23;;;;;;;;;;4997327;28;20174;-83
2023/10/15 08:31:42;;;;;;;5.10;2.10;;;;;;;;;;4985098;28;20213;-84
2023/10/15 08:35:50;;;;;;;5.77;2.43;;;;;;;;;;5016111;28;20197;-83
2023/10/15 08:43:40;;;;;;;6.73;2.40;;;;;;;;;;4995564;28;20583;-83
2023/10/15 08:47:19;;;;;;;6.17;2.60;;;;;;;;;;5029812;28;20200;-83
2023/10/15 08:51:21;;;;;;;4.57;2.00;;;;;;;;;;4981395;28;20204;-83
2023/10/15 08:55:14;;;;;;;7.40;2.20;;;;;;;;;;5024863;28;20209;-83
2023/10/15 08:58:18;;;;;;;9.93;3.13;;;;;;;;;;5025785;28;20212;-83
2023/10/15 09:01:23;;;;;;;5.10;2.67;;;;;;;;;;5025514;28;20642;-83
2023/10/15 09:04:27;;;;;;;5.10;2.20;;;;;;;;;;5003646;28;20327;-83
2023/10/15 09:07:33;;;;;;;3.53;2.40;;;;;;;;;;5025118;28;20184;-82
2023/10/15 09:10:43;;;;;;;5.13;2.30;;;;;;;;;;5024789;28;20200;-83
2023/10/15 09:13:51;;;;;;;4.17;1.70;;;;;;;;;;5024536;28;20224;-83
2023/10/15 09:16:55;;;;;;;5.37;1.90;;;;;;;;;;5013816;28;20212;-83
2023/10/15 09:20:00;;;;;;;5.30;1.90;;;;;;;;;;5013939;28;20543;-83
2023/10/15 09:23:04;;;;;;;4.47;2.50;;;;;;;;;;5024971;28;20523;-83
2023/10/15 09:26:10;;;;;;;5.00;2.90;;;;;;;;;;5017554;28;20185;-83
2023/10/15 09:29:21;;;;;;;5.43;2.13;;;;;;;;;;5016171;28;20188;-84
2023/10/15 09:32:25;;;;;;;4.20;1.87;;;;;;;;;;5003670;28;20181;-83
2023/10/15 09:35:29;;;;;;;3.50;1.43;;;;;;;;;;5025149;28;20180;-83
2023/10/15 09:38:37;;;;;;;4.17;1.60;;;;;;;;;;5013949;28;20217;-84
2023/10/15 09:41:41;;;;;;;3.90;2.30;;;;;;;;;;5025259;28;20181;-83
2023/10/15 09:44:47;;;;;;;2.57;1.60;;;;;;;;;;5013239;28;20224;-83
2023/10/15 09:47:54;;;;;;;5.37;2.33;;;;;;;;;;5024435;28;20200;-83
2023/10/15 09:50:59;;;;;;;5.67;1.53;;;;;;;;;;5013285;28;20188;-83
2023/10/15 09:54:05;;;;;;;4.17;1.90;;;;;;;;;;5023967;28;20224;-83
2023/10/15 09:57:11;;;;;;;4.53;1.53;;;;;;;;;;5024377;28;20217;-83
2023/10/15 10:00:32;;;;;;;3.17;1.87;;;;;;;;;;5023844;28;20189;-84
2023/10/15 10:03:48;;;;;;;3.10;1.53;;;;;;;;;;5022392;28;20216;-83
2023/10/15 10:07:53;;;;;;;4.93;3.30;;;;;;;;;;5013001;28;20177;-84
2023/10/15 10:11:10;;;;;;;4.13;3.30;;;;;;;;;;5013460;28;20185;-83
2023/10/15 10:15:15;;;;;;;6.60;3.83;;;;;;;;;;5027430;28;20220;-84
2023/10/15 10:18:24;;;;;;;14.40;8.80;;;;;;;;;;5013461;28;20706;-83
2023/10/15 10:21:30;;;;;;;3.27;2.07;;;;;;;;;;5013849;28;20188;-84
2023/10/15 10:24:42;;;;;;;4.37;2.10;;;;;;;;;;5038523;28;20216;-83
2023/10/15 10:27:46;;;;;;;3.67;1.70;;;;;;;;;;5024139;28;20177;-84
2023/10/15 10:30:57;;;;;;;2.67;1.30;;;;;;;;;;5041235;28;20193;-83
2023/10/15 10:34:03;;;;;;;3.50;1.80;;;;;;;;;;5017297;28;20217;-84
2023/10/15 10:37:21;;;;;;;3.80;1.40;;;;;;;;;;5027431;28;20216;-83
2023/10/15 10:40:43;;;;;;;3.27;2.13;;;;;;;;;;5017605;28;20177;-83
2023/10/15 10:43:48;;;;;;;3.60;1.40;;;;;;;;;;5016378;28;20225;-83
2023/10/15 10:46:52;;;;;;;4.70;3.00;;;;;;;;;;5023382;28;20208;-85
2023/10/15 10:49:58;;;;;;;3.97;1.60;;;;;;;;;;5032043;28;20184;-84
2023/10/15 10:53:13;;;;;;;2.80;1.43;;;;;;;;;;5033282;28;20189;-83
2023/10/15 10:56:17;;;;;;;4.23;2.00;;;;;;;;;;5030368;28;20177;-83
2023/10/15 10:59:22;;;;;;;4.23;2.30;;;;;;;;;;5016581;28;20177;-83
2023/10/15 11:02:27;;;;;;;3.60;1.70;;;;;;;;;;5030389;28;20184;-85
2023/10/15 11:05:31;;;;;;;4.63;2.70;;;;;;;;;;5033486;28;20177;-85
2023/10/15 11:08:35;;;;;;;6.33;3.60;;;;;;;;;;5021465;28;20176;-86
2023/10/15 11:11:39;;;;;;;4.90;3.10;;;;;;;;;;5032658;28;20253;-86
2023/10/15 11:14:44;;;;;;;11.73;5.93;;;;;;;;;;5021431;28;20224;-86
2023/10/15 11:17:55;;;;;;;3.90;1.90;;;;;;;;;;5047548;28;20212;-86
2023/10/15 11:21:00;;;;;;;5.70;1.33;;;;;;;;;;5047037;28;20181;-86
2023/10/15 11:24:05;;;;;;;3.93;1.30;;;;;;;;;;5034693;28;20216;-86
2023/10/15 11:27:12;;;;;;;5.20;1.40;;;;;;;;;;5033830;28;20181;-86
2023/10/15 11:30:18;;;;;;;3.60;1.00;;;;;;;;;;5022721;28;20181;-86
2023/10/15 11:33:23;;;;;;;2.33;0.77;;;;;;;;;;5022140;28;20216;-86
2023/10/15 11:36:34;;;;;;;1.43;0.60;;;;;;;;;;5033718;28;20188;-86
2023/10/15 11:39:47;;;;;;;2.03;0.83;;;;;;;;;;5034170;28;20189;-85
2023/10/15 11:42:51;;;;;;;6.30;1.10;;;;;;;;;;5022010;28;20185;-85
2023/10/15 11:46:07;;;;;;;2.50;1.00;;;;;;;;;;5033784;28;20208;-86
2023/10/15 11:49:12;;;;;;;1.90;0.93;;;;;;;;;;5048228;28;20185;-85
2023/10/15 11:52:22;;;;;;;2.13;0.70;;;;;;;;;;5033796;28;20189;-85
2023/10/15 11:55:41;;;;;;;1.83;0.87;;;;;;;;;;5010419;28;20181;-85
2023/10/15 11:59:38;;;;;;;2.30;1.00;;;;;;;;;;5042919;28;20181;-85
2023/10/15 12:02:45;;;;;;;10.37;6.60;;;;;;;;;;5021420;28;20181;-86
2023/10/15 12:05:51;;;;;;;8.57;4.57;;;;;;;;;;5043774;28;20200;-85
2023/10/15 12:08:58;;;;;;;9.33;4.60;;;;;;;;;;5033804;28;20184;-85
2023/10/15 12:12:04;;;;;;;15.43;9.27;;;;;;;;;;5032506;28;20226;-85
2023/10/15 12:15:12;;;;;;;7.97;4.63;;;;;;;;;;5017808;28;20237;-86
2023/10/15 12:18:16;;;;;;;15.87;8.63;;;;;;;;;;5028671;28;20213;-84
2023/10/15 12:21:20;;;;;;;11.30;6.13;;;;;;;;;;5029965;28;20185;-85
2023/10/15 12:24:25;;;;;;;8.57;5.90;;;;;;;;;;5028856;28;20601;-84
2023/10/15 12:27:30;;;;;;;10.80;5.10;;;;;;;;;;5026940;28;20193;-84
2023/10/15 12:30:34;;;;;;;4.80;3.40;;;;;;;;;;5041060;28;20549;-83
2023/10/15 12:33:38;;;;;;;3.47;1.70;;;;;;;;;;5018234;28;20694;-83
2023/10/15 12:36:46;;;;;;;5.23;1.40;;;;;;;;;;5040866;28;20531;-85
2023/10/15 12:39:58;;;;;;;3.63;2.03;;;;;;;;;;5029032;28;20181;-85
2023/10/15 12:43:09;;;;;;;6.10;4.53;;;;;;;;;;5016261;28;20189;-86
2023/10/15 12:46:13;;;;;;;5.40;2.37;;;;;;;;;;5026847;28;20204;-86
2023/10/15 12:53:56;;;;;;;4.53;1.90;;;;;;;;;;5038961;28;20225;-85
2023/10/15 12:57:09;;;;;;;2.77;2.17;;;;;;;;;;5006036;28;20181;-86
2023/10/15 13:00:22;;;;;;;3.60;1.50;;;;;;;;;;5027083;28;20186;-84
2023/10/15 13:03:28;;;;;;;6.37;1.97;;;;;;;;;;5017347;28;20213;-84
2023/10/15 13:06:39;;;;;;;6.60;3.17;;;;;;;;;;5020443;28;20189;-85
2023/10/15 13:09:44;;;;;;;6.63;2.60;;;;;;;;;;5030201;28;20185;-84
2023/10/15 13:13:26;;;;;;;4.67;1.50;;;;;;;;;;5039762;28;20224;-84
2023/10/15 13:16:43;;;;;;;4.87;1.90;;;;;;;;;;5029369;28;20237;-84
2023/10/15 13:19:48;;;;;;;3.50;1.40;;;;;;;;;;5039045;28;20212;-85
2023/10/15 13:22:53;;;;;;;6.13;1.50;;;;;;;;;;5015245;28;20185;-84
2023/10/15 13:25:57;;;;;;;3.47;2.20;;;;;;;;;;5025519;28;20634;-85
2023/10/15 13:29:03;;;;;;;3.97;1.60;;;;;;;;;;5025894;28;20185;-88
2023/10/15 13:32:07;;;;;;;2.33;1.27;;;;;;;;;;5026441;28;20193;-83
2023/10/15 13:35:13;;;;;;;3.03;1.30;;;;;;;;;;5027655;28;20689;-83
2023/10/15 13:38:17;;;;;;;4.47;1.37;;;;;;;;;;5038930;28;20213;-84
2023/10/15 13:41:21;;;;;;;2.07;1.30;;;;;;;;;;5028102;28;20189;-85
2023/10/15 13:44:29;;;;;;;7.83;1.73;;;;;;;;;;5024544;28;20220;-84
2023/10/15 13:47:35;;;;;;;3.67;1.67;;;;;;;;;;5025593;28;20658;-83
2023/10/15 13:50:40;;;;;;;6.77;3.23;;;;;;;;;;5037670;28;20184;-83
2023/10/15 13:53:45;;;;;;;15.53;6.57;;;;;;;;;;5004055;28;20562;-85
2023/10/15 13:57:21;;;;;;;3.30;1.47;;;;;;;;;;5038113;28;20189;-85
2023/10/15 14:00:28;;;;;;;3.17;1.20;;;;;;;;;;5024851;28;20177;-85
2023/10/15 14:04:05;;;;;;;2.73;1.20;;;;;;;;;;5038387;28;20221;-85
2023/10/15 14:07:11;;;;;;;2.53;0.90;;;;;;;;;;5017579;28;20527;-86
2023/10/15 14:10:42;;;;;;;2.30;0.90;;;;;;;;;;5024807;28;20523;-86
2023/10/15 14:13:55;;;;;;;1.73;1.00;;;;;;;;;;5014133;28;20220;-85
2023/10/15 14:17:25;;;;;;;2.53;0.90;;;;;;;;;;5016546;28;20227;-85
2023/10/15 14:20:29;;;;;;;2.17;0.93;;;;;;;;;;5027068;28;20524;-85
2023/10/15 14:23:37;;;;;;;1.70;0.90;;;;;;;;;;5026554;28;20220;-85
2023/10/15 14:26:43;;;;;;;1.37;0.80;;;;;;;;;;5026206;28;20189;-85
2023/10/15 14:29:47;;;;;;;1.00;0.60;;;;;;;;;;5040658;28;20180;-84
2023/10/15 14:33:17;;;;;;;2.23;1.00;;;;;;;;;;5015806;28;20220;-85
2023/10/15 14:36:36;;;;;;;2.00;0.83;;;;;;;;;;5012827;28;20218;-85
2023/10/15 14:41:19;;;;;;;3.83;1.00;;;;;;;;;;5003381;28;20193;-84
2023/10/15 14:49:43;;;;;;;37.40;20.63;;;;;;;;;;5024393;28;20204;-86
2023/10/15 14:59:09;;;;;;;11.97;6.00;;;;;;;;;;4921364;29;20228;-85
2023/10/15 15:02:14;;;;;;;10.63;7.10;;;;;;;;;;4888593;29;20200;-83
2023/10/15 15:05:18;;;;;;;1.20;0.70;;;;;;;;;;4901574;29;20225;-83
2023/10/15 15:08:25;;;;;;;2.17;0.70;;;;;;;;;;4891335;29;20182;-84
2023/10/15 15:11:30;;;;;;;4.97;0.87;;;;;;;;;;4881750;29;20198;-84
2023/10/15 15:14:58;;;;;;;1.97;0.93;;;;;;;;;;4903266;29;20221;-84
2023/10/15 15:18:03;;;;;;;1.73;0.80;;;;;;;;;;4890992;29;20193;-85
2023/10/15 15:21:17;;;;;;;3.77;2.43;;;;;;;;;;4890246;29;20189;-84
2023/10/15 15:24:50;;;;;;;2.50;1.93;;;;;;;;;;4900933;29;20225;-84
2023/10/15 15:27:59;;;;;;;2.03;1.53;;;;;;;;;;4890196;29;20185;-84
2023/10/15 15:31:10;;;;;;;1.23;0.90;;;;;;;;;;4891396;29;20525;-85
2023/10/15 15:34:20;;;;;;;3.87;0.90;;;;;;;;;;4904315;29;20225;-84
2023/10/15 15:37:26;;;;;;;0.80;0.67;;;;;;;;;;4892080;29;20190;-83
2023/10/15 15:41:06;;;;;;;2.83;0.80;;;;;;;;;;4880787;29;20209;-85
2023/10/15 15:44:21;;;;;;;3.00;0.90;;;;;;;;;;4880835;29;20544;-85
2023/10/15 15:47:25;;;;;;;0.60;0.60;;;;;;;;;;4902082;29;20185;-84
2023/10/15 15:50:33;;;;;;;4.80;2.57;;;;;;;;;;4879933;29;20185;-84
2023/10/15 15:57:24;;;;;;;7.83;7.17;;;;;;;;;;4891425;29;20214;-85
2023/10/15 16:00:32;;;;;;;5.50;5.00;;;;;;;;;;4891399;29;20214;-85
2023/10/15 16:03:36;;;;;;;2.57;2.30;;;;;;;;;;4904203;29;20233;-85
2023/10/15 16:06:40;;;;;;;3.17;2.43;;;;;;;;;;4904363;29;20532;-85
2023/10/15 16:09:44;;;;;;;8.17;6.83;;;;;;;;;;4892828;29;20635;-86
2023/10/15 16:12:49;;;;;;;4.33;3.43;;;;;;;;;;4905193;29;20190;-85
2023/10/15 16:15:54;;;;;;;4.07;1.20;;;;;;;;;;4904100;29;20528;-85
2023/10/15 16:18:59;;;;;;;1.70;0.93;;;;;;;;;;4892859;29;20218;-85
2023/10/15 16:22:03;;;;;;;2.73;0.53;;;;;;;;;;4871622;29;20194;-85
2023/10/15 16:25:09;;;;;;;2.00;0.70;;;;;;;;;;4892891;29;20229;-85
2023/10/15 16:28:13;;;;;;;1.63;0.73;;;;;;;;;;4904421;29;20190;-85
2023/10/15 16:31:19;;;;;;;3.50;2.20;;;;;;;;;;4903941;29;20190;-84
2023/10/15 16:34:24;;;;;;;6.53;3.80;;;;;;;;;;4893899;29;20233;-84
2023/10/15 16:37:28;;;;;;;12.33;5.63;;;;;;;;;;4902552;29;20197;-84
2023/10/15 16:40:33;;;;;;;1.63;1.37;;;;;;;;;;4903642;29;20225;-84
2023/10/15 16:43:37;;;;;;;1.63;1.00;;;;;;;;;;4903368;29;20228;-85
2023/10/15 16:46:42;;;;;;;6.90;4.53;;;;;;;;;;4892705;29;20197;-84
2023/10/15 16:49:47;;;;;;;33.03;19.67;;;;;;;;;;4903124;29;20524;-84
2023/10/15 16:52:56;;;;;;;16.03;10.80;;;;;;;;;;4903735;29;20640;-84
2023/10/15 16:56:05;;;;;;;9.37;6.23;;;;;;;;;;4902957;29;20185;-84
2023/10/15 16:59:10;;;;;;;5.27;3.30;;;;;;;;;;4902793;29;20233;-85
2023/10/15 17:02:14;;;;;;;5.60;2.73;;;;;;;;;;4892895;29;20193;-81
2023/10/15 17:05:19;;;;;;;6.30;3.50;;;;;;;;;;4881698;29;20560;-81
2023/10/15 17:08:23;;;;;;;4.30;3.20;;;;;;;;;;4903645;29;20190;-81
2023/10/15 17:11:28;;;;;;;2.60;2.23;;;;;;;;;;4882879;29;20189;-81
2023/10/15 17:14:33;;;;;;;2.87;1.00;;;;;;;;;;4903623;29;20225;-81
2023/10/15 17:17:41;;;;;;;3.40;2.17;;;;;;;;;;4891940;29;20186;-82
2023/10/15 17:20:46;;;;;;;2.57;1.70;;;;;;;;;;4890492;29;20221;-81
2023/10/15 17:23:50;;;;;;;2.27;1.00;;;;;;;;;;4903655;29;20225;-82
2023/10/15 17:26:58;;;;;;;2.73;1.20;;;;;;;;;;4882336;29;20190;-81
2023/10/15 17:30:03;;;;;;;1.13;0.87;;;;;;;;;;4872307;29;20186;-82
2023/10/15 17:33:08;;;;;;;2.40;0.97;;;;;;;;;;4894054;29;20185;-82
2023/10/15 17:36:14;;;;;;;4.40;0.80;;;;;;;;;;4903176;29;20193;-81
2023/10/15 17:39:20;;;;;;;2.33;0.90;;;;;;;;;;4882146;29;20218;-81
2023/10/15 17:42:24;;;;;;;1.27;0.70;;;;;;;;;;4902939;29;20185;-81
2023/10/15 17:45:29;;;;;;;3.27;1.00;;;;;;;;;;4892801;29;20194;-81
2023/10/15 17:48:33;;;;;;;2.13;1.10;;;;;;;;;;4873181;29;20198;-81
2023/10/15 17:51:37;;;;;;;2.83;0.80;;;;;;;;;;4883867;29;20190;-81
2023/10/15 17:54:41;;;;;;;4.30;1.07;;;;;;;;;;4872910;29;20230;-81
2023/10/15 17:57:45;;;;;;;1.20;0.80;;;;;;;;;;4874225;29;20221;-82
2023/10/15 18:00:49;;;;;;;0.93;0.87;;;;;;;;;;4873011;29;20218;-81
2023/10/15 18:03:54;;;;;;;1.77;0.80;;;;;;;;;;4861584;29;20233;-81
2023/10/15 18:06:58;;;;;;;2.50;0.80;;;;;;;;;;4872535;29;20641;-82
2023/10/15 18:10:03;;;;;;;1.20;0.83;;;;;;;;;;4873328;29;20186;-81
2023/10/15 18:13:07;;;;;;;1.70;1.10;;;;;;;;;;4872530;29;20531;-81
2023/10/15 18:16:12;;;;;;;1.00;0.80;;;;;;;;;;4883387;29;20190;-81
2023/10/15 18:19:17;;;;;;;3.07;1.00;;;;;;;;;;4872608;29;20217;-81
2023/10/15 18:22:21;;;;;;;2.10;1.60;;;;;;;;;;4882135;29;20182;-81
2023/10/15 18:25:26;;;;;;;6.33;3.97;;;;;;;;;;4860093;29;20636;-81
2023/10/15 18:28:30;;;;;;;7.60;4.90;;;;;;;;;;4871793;29;20194;-81
2023/10/15 18:31:35;;;;;;;3.77;2.33;;;;;;;;;;4883149;29;20186;-81
2023/10/15 18:34:39;;;;;;;3.20;2.13;;;;;;;;;;4861732;29;20230;-81
2023/10/15 18:37:44;;;;;;;3.23;1.50;;;;;;;;;;4883922;29;20190;-82
2023/10/15 18:40:48;;;;;;;1.97;1.13;;;;;;;;;;4881770;29;20218;-81
2023/10/15 18:43:53;;;;;;;1.40;1.00;;;;;;;;;;4870855;29;20225;-81
2023/10/15 18:46:57;;;;;;;1.90;1.10;;;;;;;;;;4882819;29;20194;-81
2023/10/15 18:50:02;;;;;;;2.27;1.13;;;;;;;;;;4870933;29;20186;-81
2023/10/15 18:53:06;;;;;;;3.80;1.50;;;;;;;;;;4882401;29;20187;-81
2023/10/15 18:56:10;;;;;;;2.60;1.30;;;;;;;;;;4860951;29;20644;-81
2023/10/15 18:59:18;;;;;;;3.03;1.30;;;;;;;;;;4870831;29;20679;-81
2023/10/15 19:02:25;;;;;;;4.20;1.10;;;;;;;;;;4884558;29;20190;-82
2023/10/15 19:05:31;;;;;;;3.00;1.73;;;;;;;;;;4873388;29;20190;-82
2023/10/15 19:08:35;;;;;;;4.40;1.30;;;;;;;;;;4862903;29;20190;-82
2023/10/15 19:11:40;;;;;;;2.07;1.20;;;;;;;;;;4873162;29;20191;-82
2023/10/15 19:14:44;;;;;;;2.73;1.20;;;;;;;;;;4873358;29;20225;-82
2023/10/15 19:17:49;;;;;;;2.80;1.30;;;;;;;;;;4872410;29;20194;-82
2023/10/15 19:20:54;;;;;;;2.30;1.23;;;;;;;;;;4862021;29;20218;-82
2023/10/15 19:23:59;;;;;;;1.43;1.17;;;;;;;;;;4883134;29;20230;-82
2023/10/15 19:27:06;;;;;;;2.07;1.43;;;;;;;;;;4870657;29;20533;-81
2023/10/15 19:30:16;;;;;;;1.73;1.17;;;;;;;;;;4870414;29;20186;-81
2023/10/15 19:33:22;;;;;;;3.63;1.33;;;;;;;;;;4870683;29;20249;-82
2023/10/15 19:36:28;;;;;;;2.67;1.33;;;;;;;;;;4872239;29;20194;-82
2023/10/15 19:39:33;;;;;;;3.43;1.33;;;;;;;;;;4874439;29;20637;-82
2023/10/15 19:42:38;;;;;;;2.30;1.33;;;;;;;;;;4874242;29;20182;-81
2023/10/15 19:45:42;;;;;;;3.47;1.30;;;;;;;;;;4875198;29;20190;-82
2023/10/15 19:48:46;;;;;;;1.50;1.10;;;;;;;;;;4886258;29;20190;-82
2023/10/15 19:51:50;;;;;;;2.43;1.47;;;;;;;;;;4885448;29;20187;-82
2023/10/15 19:54:55;;;;;;;4.50;1.33;;;;;;;;;;4875728;29;20225;-82
2023/10/15 19:57:59;;;;;;;1.50;1.10;;;;;;;;;;4886094;29;20229;-81
2023/10/15 20:04:37;;;;;;;2.50;1.30;;;;;;;;;;4868449;29;20225;-82